createdAt,value
2022-12-03T00:00:18.336Z,102496.75
2022-12-03T00:02:44.908Z,102493.28
2022-12-03T00:05:11.539Z,102497.81
2022-12-03T00:07:38.113Z,102494.56
2022-12-03T00:10:05.677Z,102489.19
2022-12-03T00:12:32.092Z,102480.84
2022-12-03T00:14:58.695Z,102484.88
2022-12-03T00:17:25.228Z,102490.25
2022-12-03T00:19:51.685Z,102481.38
2022-12-03T00:22:18.129Z,102489.72
2022-12-03T00:24:44.580Z,102484.63
2022-12-03T00:27:11.023Z,102485.47
2022-12-03T00:29:37.440Z,102480.34
2022-12-03T00:32:03.927Z,102465.81
2022-12-03T00:34:30.357Z,102467.16
2022-12-03T00:36:56.831Z,102471.19
2022-12-03T00:39:23.235Z,102474.69
2022-12-03T00:41:49.632Z,102474.19
2022-12-03T00:44:16.163Z,102468.81
2022-12-03T00:46:42.743Z,102471.19
2022-12-03T00:49:09.309Z,102469.06
2022-12-03T00:51:35.929Z,102469.88
2022-12-03T00:54:02.426Z,102462.91
2022-12-03T00:56:28.866Z,102462.63
2022-12-03T00:58:55.320Z,102467.19
2022-12-03T01:01:21.850Z,102454.84
2022-12-03T01:03:48.315Z,102456.97
2022-12-03T01:06:14.760Z,102451.84
2022-12-03T01:08:41.243Z,102454.00
2022-12-03T01:11:27.721Z,102451.31
2022-12-03T01:13:54.152Z,102447.56
2022-12-03T01:16:20.742Z,102449.16
2022-12-03T01:18:47.388Z,102452.38
2022-12-03T01:21:13.798Z,102448.09
2022-12-03T01:23:40.245Z,102447.03
2022-12-03T01:26:06.697Z,102439.50
2022-12-03T01:28:33.203Z,102440.34
2022-12-03T01:31:18.048Z,102441.09
2022-12-03T01:33:44.561Z,102440.56
2022-12-03T01:36:10.965Z,102445.13
2022-12-03T01:38:37.360Z,102440.03
2022-12-03T01:41:10.075Z,102437.09
2022-12-03T01:43:38.468Z,102442.22
2022-12-03T01:46:05.186Z,102441.41
2022-12-03T01:48:34.855Z,102443.78
2022-12-03T01:51:01.852Z,102441.66
2022-12-03T01:53:28.306Z,102435.75
2022-12-03T01:55:54.889Z,102441.91
2022-12-03T01:58:26.205Z,102441.38
2022-12-03T02:00:52.665Z,102443.00
2022-12-03T02:03:23.376Z,102440.31
2022-12-03T02:05:50.616Z,102438.94
2022-12-03T02:08:34.945Z,102444.59
2022-12-03T02:11:19.694Z,102438.16
2022-12-03T02:13:47.827Z,102434.66
2022-12-03T02:16:14.331Z,102438.47
2022-12-03T02:18:41.399Z,102436.56
2022-12-03T02:21:22.176Z,102438.16
2022-12-03T02:24:01.724Z,102442.22
2022-12-03T02:26:29.720Z,102442.22
2022-12-03T02:28:56.881Z,102430.91
2022-12-03T02:31:24.096Z,102439.50
2022-12-03T02:33:50.760Z,102432.25
2022-12-03T02:36:17.362Z,102434.97
2022-12-03T02:38:45.460Z,102430.38
2022-12-03T02:41:34.674Z,102431.41
2022-12-03T02:44:01.677Z,102438.41
2022-12-03T02:46:28.467Z,102434.41
2022-12-03T02:48:55.149Z,102432.78
2022-12-03T02:51:21.611Z,102429.88
2022-12-03T02:53:50.120Z,102425.88
2022-12-03T02:56:20.626Z,102419.38
2022-12-03T02:58:49.721Z,102424.50
2022-12-03T03:01:17.465Z,102418.84
2022-12-03T03:03:45.619Z,102425.84
2022-12-03T03:06:12.603Z,102417.25
2022-12-03T03:08:40.237Z,102419.69
2022-12-03T03:11:06.687Z,102408.41
2022-12-03T03:13:35.364Z,102411.91
2022-12-03T03:16:03.958Z,102416.16
2022-12-03T03:18:31.090Z,102409.75
2022-12-03T03:20:57.516Z,102408.91
2022-12-03T03:23:24.491Z,102414.59
2022-12-03T03:26:12.240Z,102406.00
2022-12-03T03:28:45.561Z,102414.06
2022-12-03T03:31:15.381Z,102406.78
2022-12-03T03:33:45.185Z,102407.09
2022-12-03T03:36:13.092Z,102414.59
2022-12-03T03:38:39.756Z,102402.47
2022-12-03T03:41:08.864Z,102397.38
2022-12-03T03:43:37.975Z,102406.53
2022-12-03T03:46:06.416Z,102410.81
2022-12-03T03:48:34.642Z,102402.78
2022-12-03T03:51:09.235Z,102401.97
2022-12-03T03:53:39.337Z,102399.28
2022-12-03T03:56:06.518Z,102400.06
2022-12-03T03:58:33.053Z,102391.22
2022-12-03T04:01:00.756Z,102390.41
2022-12-03T04:03:28.356Z,102387.97
2022-12-03T04:05:54.910Z,102379.06
2022-12-03T04:08:21.428Z,102379.88
2022-12-03T04:11:06.084Z,102375.59
2022-12-03T04:13:32.512Z,102373.41
2022-12-03T04:15:59.091Z,102380.16
2022-12-03T04:18:43.652Z,102386.63
2022-12-03T04:21:36.558Z,102378.84
2022-12-03T04:24:04.270Z,102368.09
2022-12-03T04:26:49.592Z,102374.81
2022-12-03T04:29:16.198Z,102381.50
2022-12-03T04:32:01.313Z,102375.59
2022-12-03T04:34:46.051Z,102360.84
2022-12-03T04:37:12.677Z,102376.38
2022-12-03T04:39:39.264Z,102379.38
2022-12-03T04:42:06.368Z,102372.13
2022-12-03T04:44:33.469Z,102365.41
2022-12-03T04:47:00.780Z,102372.13
2022-12-03T04:49:27.228Z,102365.94
2022-12-03T04:51:53.705Z,102369.69
2022-12-03T04:54:20.150Z,102366.22
2022-12-03T04:56:46.618Z,102365.13
2022-12-03T04:59:16.255Z,102360.56
2022-12-03T05:01:44.298Z,102364.28
2022-12-03T05:04:11.479Z,102374.53
2022-12-03T05:06:38.030Z,102372.94
2022-12-03T05:09:04.720Z,102376.19
2022-12-03T05:11:31.231Z,102359.22
2022-12-03T05:13:57.688Z,102357.84
2022-12-03T05:16:24.209Z,102364.03
2022-12-03T05:18:50.731Z,102359.19
2022-12-03T05:21:17.267Z,102366.72
2022-12-03T05:23:44.091Z,102362.69
2022-12-03T05:26:10.827Z,102364.28
2022-12-03T05:28:37.249Z,102363.47
2022-12-03T05:31:05.107Z,102351.69
2022-12-03T05:33:31.730Z,102365.13
2022-12-03T05:35:58.440Z,102359.50
2022-12-03T05:38:24.835Z,102356.56
2022-12-03T05:40:51.275Z,102354.38
2022-12-03T05:43:17.753Z,102360.84
2022-12-03T05:45:45.120Z,102351.16
2022-12-03T05:48:14.453Z,102360.31
2022-12-03T05:50:44.267Z,102347.41
2022-12-03T05:53:11.812Z,102354.13
2022-12-03T05:55:38.641Z,102341.50
2022-12-03T05:58:05.493Z,102347.16
2022-12-03T06:00:42.504Z,102341.78
2022-12-03T06:03:10.191Z,102342.84
2022-12-03T06:05:36.877Z,102342.84
2022-12-03T06:08:03.536Z,102336.41
2022-12-03T06:10:30.484Z,102342.84
2022-12-03T06:12:57.130Z,102329.94
2022-12-03T06:15:23.897Z,102332.91
2022-12-03T06:17:50.538Z,102333.16
2022-12-03T06:20:19.714Z,102338.53
2022-12-03T06:22:46.879Z,102336.63
2022-12-03T06:25:14.144Z,102329.88
2022-12-03T06:27:40.601Z,102333.13
2022-12-03T06:30:08.902Z,102326.97
2022-12-03T06:32:35.854Z,102329.41
2022-12-03T06:35:02.802Z,102324.56
2022-12-03T06:37:29.253Z,102327.28
2022-12-03T06:39:55.668Z,102317.59
2022-12-03T06:42:22.457Z,102315.19
2022-12-03T06:44:48.916Z,102314.34
2022-12-03T06:47:15.344Z,102318.38
2022-12-03T06:49:41.856Z,102316.47
2022-12-03T06:52:08.333Z,102331.25
2022-12-03T06:54:34.805Z,102333.94
2022-12-03T06:57:01.345Z,102339.06
2022-12-03T06:59:27.854Z,102330.16
2022-12-03T07:01:54.359Z,102332.31
2022-12-03T07:04:20.825Z,102330.19
2022-12-03T07:06:47.277Z,102329.38
2022-12-03T07:09:16.313Z,102326.94
2022-12-03T07:11:42.953Z,102330.19
2022-12-03T07:14:11.333Z,102328.59
2022-12-03T07:16:39.285Z,102335.81
2022-12-03T07:19:06.935Z,102328.31
2022-12-03T07:21:33.688Z,102329.38
2022-12-03T07:24:00.513Z,102329.38
2022-12-03T07:26:27.233Z,102337.72
2022-12-03T07:28:53.690Z,102328.59
2022-12-03T07:31:20.267Z,102341.75
2022-12-03T07:33:46.828Z,102344.13
2022-12-03T07:36:13.265Z,102336.88
2022-12-03T07:38:39.764Z,102344.41
2022-12-03T07:41:06.282Z,102339.84
2022-12-03T07:43:32.953Z,102346.28
2022-12-03T07:45:59.386Z,102340.88
2022-12-03T07:48:25.854Z,102345.44
2022-12-03T07:50:52.329Z,102351.63
2022-12-03T07:53:18.885Z,102346.56
2022-12-03T07:55:45.648Z,102340.66
2022-12-03T07:58:12.136Z,102349.75
2022-12-03T08:00:38.664Z,102347.91
2022-12-03T08:03:05.172Z,102342.00
2022-12-03T08:05:31.638Z,102343.34
2022-12-03T08:07:58.127Z,102343.88
2022-12-03T08:10:26.621Z,102342.25
2022-12-03T08:12:53.763Z,102341.72
2022-12-03T08:15:26.610Z,102340.38
2022-12-03T08:18:01.541Z,102336.34
2022-12-03T08:20:31.736Z,102332.59
2022-12-03T08:22:58.930Z,102324.84
2022-12-03T08:25:26.672Z,102328.84
2022-12-03T08:27:57.816Z,102324.84
2022-12-03T08:30:24.367Z,102326.16
2022-12-03T08:32:51.114Z,102331.28
2022-12-03T08:35:27.407Z,102333.91
2022-12-03T08:38:06.085Z,102330.19
2022-12-03T08:40:39.584Z,102328.59
2022-12-03T08:43:22.957Z,102331.53
2022-12-03T08:45:52.030Z,102321.88
2022-12-03T08:48:18.426Z,102324.84
2022-12-03T08:50:45.223Z,102335.84
2022-12-03T08:53:25.742Z,102334.19
2022-12-03T08:55:54.303Z,102326.97
2022-12-03T08:58:32.222Z,102325.88
2022-12-03T09:01:14.290Z,102318.63
2022-12-03T09:04:21.229Z,102323.16
2022-12-03T09:06:48.288Z,102322.94
2022-12-03T09:09:14.904Z,102324.84
2022-12-03T09:11:43.176Z,102330.75
2022-12-03T09:14:15.102Z,102323.47
2022-12-03T09:16:44.741Z,102318.38
2022-12-03T09:19:11.305Z,102321.84
2022-12-03T09:21:37.734Z,102318.09
2022-12-03T09:24:04.261Z,102314.84
2022-12-03T09:26:31.275Z,102313.00
2022-12-03T09:28:57.812Z,102311.13
2022-12-03T09:31:24.384Z,102309.53
2022-12-03T09:33:50.966Z,102300.41
2022-12-03T09:36:17.430Z,102302.81
2022-12-03T09:38:47.731Z,102315.72
2022-12-03T09:41:14.841Z,102309.53
2022-12-03T09:44:03.202Z,102309.53
2022-12-03T09:46:30.123Z,102309.53
2022-12-03T09:48:56.884Z,102309.81
2022-12-03T09:51:30.125Z,102300.63
2022-12-03T09:53:59.215Z,102309.22
2022-12-03T09:56:25.712Z,102305.22
2022-12-03T09:58:52.490Z,102301.19
2022-12-03T10:01:19.062Z,102311.09
2022-12-03T10:03:51.143Z,102305.47
2022-12-03T10:06:22.654Z,102310.00
2022-12-03T10:08:52.874Z,102312.69
2022-12-03T10:11:21.402Z,102312.41
2022-12-03T10:13:48.459Z,102307.56
2022-12-03T10:16:18.609Z,102308.13
2022-12-03T10:18:49.565Z,102315.41
2022-12-03T10:21:38.534Z,102305.75
2022-12-03T10:24:17.728Z,102304.13
2022-12-03T10:26:45.769Z,102296.06
2022-12-03T10:29:19.746Z,102300.63
2022-12-03T10:31:54.146Z,102297.41
2022-12-03T10:34:30.686Z,102304.09
2022-12-03T10:37:08.726Z,102290.94
2022-12-03T10:39:55.920Z,102288.56
2022-12-03T10:42:23.685Z,102293.09
2022-12-03T10:45:06.201Z,102291.25
2022-12-03T10:47:32.785Z,102278.34
2022-12-03T10:50:06.127Z,102279.16
2022-12-03T10:52:32.874Z,102277.00
2022-12-03T10:54:59.399Z,102270.81
2022-12-03T10:57:26.376Z,102272.16
2022-12-03T10:59:52.800Z,102265.19
2022-12-03T11:02:22.464Z,102256.06
2022-12-03T11:04:50.317Z,102265.72
2022-12-03T11:07:21.836Z,102260.09
2022-12-03T11:09:51.903Z,102258.19
2022-12-03T11:12:24.686Z,102249.88
2022-12-03T11:14:51.931Z,102256.31
2022-12-03T11:17:40.259Z,102243.41
2022-12-03T11:20:24.984Z,102244.50
2022-12-03T11:22:52.913Z,102249.84
2022-12-03T11:25:25.397Z,102239.16
2022-12-03T11:28:10.466Z,102231.59
2022-12-03T11:30:49.212Z,102225.69
2022-12-03T11:33:33.328Z,102235.13
2022-12-03T11:36:02.474Z,102227.88
2022-12-03T11:38:38.274Z,102233.25
2022-12-03T11:41:35.053Z,102223.84
2022-12-03T11:44:26.716Z,102221.41
2022-12-03T11:46:54.163Z,102215.25
2022-12-03T11:49:37.721Z,102200.50
2022-12-03T11:52:19.917Z,102209.59
2022-12-03T11:54:50.398Z,102210.69
2022-12-03T11:57:26.559Z,102213.38
2022-12-03T12:00:01.738Z,102212.28
2022-12-03T12:02:28.299Z,102202.34
2022-12-03T12:04:54.762Z,102202.91
2022-12-03T12:07:35.133Z,102201.00
2022-12-03T12:10:01.878Z,102191.63
2022-12-03T12:12:31.047Z,102194.03
2022-12-03T12:14:59.055Z,102186.25
2022-12-03T12:17:36.528Z,102192.94
2022-12-03T12:20:21.688Z,102182.75
2022-12-03T12:22:48.181Z,102174.97
2022-12-03T12:25:29.622Z,102179.00
2022-12-03T12:27:56.978Z,102178.75
2022-12-03T12:30:24.090Z,102172.03
2022-12-03T12:32:52.989Z,102164.78
2022-12-03T12:35:24.962Z,102163.69
2022-12-03T12:38:08.669Z,102161.56
2022-12-03T12:40:38.640Z,102157.78
2022-12-03T12:43:15.340Z,102150.53
2022-12-03T12:45:43.996Z,102157.53
2022-12-03T12:48:16.340Z,102149.47
2022-12-03T12:50:45.337Z,102155.38
2022-12-03T12:53:20.804Z,102150.00
2022-12-03T12:55:48.678Z,102158.84
2022-12-03T12:58:18.239Z,102162.34
2022-12-03T13:00:50.898Z,102154.84
2022-12-03T13:03:20.102Z,102151.09
2022-12-03T13:05:49.212Z,102161.25
2022-12-03T13:08:23.318Z,102158.59
2022-12-03T13:10:52.255Z,102155.13
2022-12-03T13:13:25.332Z,102152.16
2022-12-03T13:16:04.029Z,102144.38
2022-12-03T13:18:41.561Z,102151.09
2022-12-03T13:21:24.406Z,102147.59
2022-12-03T13:23:53.615Z,102141.41
2022-12-03T13:26:39.417Z,102144.63
2022-12-03T13:29:18.171Z,102133.09
2022-12-03T13:31:54.212Z,102135.22
2022-12-03T13:34:24.010Z,102140.88
2022-12-03T13:36:57.659Z,102139.00
2022-12-03T13:39:36.803Z,102137.38
2022-12-03T13:42:40.997Z,102124.50
2022-12-03T13:45:16.274Z,102126.91
2022-12-03T13:47:53.162Z,102122.34
2022-12-03T13:50:41.030Z,102121.28
2022-12-03T13:53:22.510Z,102114.31
2022-12-03T13:55:54.012Z,102115.38
2022-12-03T13:58:20.444Z,102109.75
2022-12-03T14:00:46.961Z,102115.38
2022-12-03T14:03:13.548Z,102114.03
2022-12-03T14:05:40.003Z,102110.00
2022-12-03T14:08:06.582Z,102107.59
2022-12-03T14:10:33.233Z,102101.97
2022-12-03T14:12:59.662Z,102102.75
2022-12-03T14:15:28.889Z,102099.03
2022-12-03T14:17:55.398Z,102103.31
2022-12-03T14:20:22.148Z,102094.72
2022-12-03T14:22:48.616Z,102100.06
2022-12-03T14:25:15.123Z,102093.34
2022-12-03T14:27:41.628Z,102095.50
2022-12-03T14:30:09.201Z,102100.06
2022-12-03T14:32:35.692Z,102107.03
2022-12-03T14:35:06.705Z,102108.13
2022-12-03T14:37:36.472Z,102103.25
2022-12-03T14:40:03.921Z,102102.47
2022-12-03T14:42:30.401Z,102088.53
2022-12-03T14:44:56.822Z,102096.56
2022-12-03T14:47:23.288Z,102105.69
2022-12-03T14:49:50.649Z,102111.06
2022-12-03T14:52:18.131Z,102096.03
2022-12-03T14:54:45.253Z,102096.84
2022-12-03T14:57:13.959Z,102102.19
2022-12-03T14:59:41.608Z,102110.22
2022-12-03T15:02:09.844Z,102107.00
2022-12-03T15:04:36.768Z,102101.91
2022-12-03T15:07:03.574Z,102104.88
2022-12-03T15:09:30.028Z,102102.72
2022-12-03T15:11:56.445Z,102096.81
2022-12-03T15:14:22.898Z,102100.56
2022-12-03T15:16:49.390Z,102094.16
2022-12-03T15:19:16.140Z,102094.97
2022-12-03T15:21:42.665Z,102094.94
2022-12-03T15:24:10.613Z,102093.59
2022-12-03T15:26:37.420Z,102097.88
2022-12-03T15:29:03.840Z,102100.03
2022-12-03T15:31:30.436Z,102101.38
2022-12-03T15:33:56.933Z,102107.28
2022-12-03T15:36:23.426Z,102104.06
2022-12-03T15:38:49.920Z,102093.59
2022-12-03T15:41:24.580Z,102107.03
2022-12-03T15:43:52.641Z,102105.16
2022-12-03T15:46:20.296Z,102106.75
2022-12-03T15:48:47.432Z,102097.91
2022-12-03T15:51:14.257Z,102101.91
2022-12-03T15:53:41.082Z,102100.03
2022-12-03T15:56:07.697Z,102097.91
2022-12-03T15:58:34.569Z,102103.00
2022-12-03T16:01:01.429Z,102102.44
2022-12-03T16:03:28.065Z,102097.09
2022-12-03T16:05:54.609Z,102106.75
2022-12-03T16:08:21.474Z,102100.81
2022-12-03T16:10:48.043Z,102098.69
2022-12-03T16:13:14.472Z,102094.69
2022-12-03T16:15:41.009Z,102094.66
2022-12-03T16:18:07.429Z,102096.81
2022-12-03T16:20:33.861Z,102101.09
2022-12-03T16:23:00.282Z,102087.66
2022-12-03T16:25:26.838Z,102092.75
2022-12-03T16:27:53.341Z,102090.09
2022-12-03T16:30:20.209Z,102088.19
2022-12-03T16:32:46.658Z,102093.28
2022-12-03T16:35:13.089Z,102082.03
2022-12-03T16:37:39.536Z,102088.19
2022-12-03T16:40:07.208Z,102083.66
2022-12-03T16:42:33.736Z,102080.16
2022-12-03T16:45:02.865Z,102077.50
2022-12-03T16:47:33.784Z,102072.66
2022-12-03T16:50:01.901Z,102076.41
2022-12-03T16:52:28.457Z,102075.59
2022-12-03T16:54:54.949Z,102075.88
2022-12-03T16:57:21.375Z,102075.88
2022-12-03T16:59:47.822Z,102079.09
2022-12-03T17:02:14.458Z,102074.78
2022-12-03T17:04:40.999Z,102076.13
2022-12-03T17:07:07.416Z,102075.88
2022-12-03T17:09:33.820Z,102069.97
2022-12-03T17:12:00.262Z,102069.44
2022-12-03T17:14:32.800Z,102066.19
2022-12-03T17:16:59.742Z,102067.84
2022-12-03T17:19:26.231Z,102070.78
2022-12-03T17:21:54.014Z,102071.03
2022-12-03T17:24:21.389Z,102066.75
2022-12-03T17:26:47.905Z,102074.78
2022-12-03T17:29:14.371Z,102078.00
2022-12-03T17:31:42.613Z,102070.47
2022-12-03T17:34:09.605Z,102083.34
2022-12-03T17:36:36.053Z,102075.31
2022-12-03T17:39:02.540Z,102081.75
2022-12-03T17:41:29.028Z,102076.13
2022-12-03T17:43:55.504Z,102070.22
2022-12-03T17:46:22.002Z,102067.53
2022-12-03T17:48:48.494Z,102072.38
2022-12-03T17:51:14.945Z,102060.28
2022-12-03T17:53:41.422Z,102069.91
2022-12-03T17:56:07.945Z,102069.13
2022-12-03T17:58:34.747Z,102071.59
2022-12-03T18:01:03.172Z,102069.69
2022-12-03T18:03:30.277Z,102072.34
2022-12-03T18:05:56.918Z,102074.25
2022-12-03T18:08:23.470Z,102076.91
2022-12-03T18:10:50.271Z,102071.28
2022-12-03T18:13:16.732Z,102064.28
2022-12-03T18:15:43.283Z,102064.84
2022-12-03T18:18:09.916Z,102057.59
2022-12-03T18:20:36.675Z,102056.53
2022-12-03T18:23:03.551Z,102052.78
2022-12-03T18:25:30.605Z,102054.34
2022-12-03T18:27:57.345Z,102050.59
2022-12-03T18:30:24.043Z,102050.63
2022-12-03T18:32:50.905Z,102051.97
2022-12-03T18:35:17.987Z,102040.44
2022-12-03T18:37:44.598Z,102040.72
2022-12-03T18:40:23.094Z,102041.22
2022-12-03T18:42:49.574Z,102040.97
2022-12-03T18:45:16.689Z,102042.56
2022-12-03T18:47:43.441Z,102043.63
2022-12-03T18:50:11.407Z,102039.34
2022-12-03T18:52:38.679Z,102038.00
2022-12-03T18:55:06.417Z,102037.97
2022-12-03T18:57:32.865Z,102033.72
2022-12-03T19:00:01.581Z,102047.38
2022-12-03T19:05:14.441Z,102036.41
2022-12-03T19:07:40.960Z,102047.91
2022-12-03T19:10:08.712Z,102041.22
2022-12-03T19:12:35.575Z,102039.59
2022-12-03T19:15:02.652Z,102043.34
2022-12-03T19:17:29.093Z,102039.84
2022-12-03T19:19:55.850Z,102047.91
2022-12-03T19:22:22.948Z,102044.13
2022-12-03T19:24:49.796Z,102046.59
2022-12-03T19:27:16.320Z,102043.91
2022-12-03T19:29:42.812Z,102038.84
2022-12-03T19:32:09.423Z,102034.53
2022-12-03T19:34:36.220Z,102035.59
2022-12-03T19:37:02.679Z,102037.72
2022-12-03T19:39:29.207Z,102039.56
2022-12-03T19:41:55.740Z,102039.59
2022-12-03T19:44:22.229Z,102050.03
2022-12-03T19:46:49.704Z,102039.06
2022-12-03T19:49:18.447Z,102038.25
2022-12-03T19:51:44.921Z,102034.19
2022-12-03T19:54:11.965Z,102032.88
2022-12-03T19:56:38.448Z,102031.03
2022-12-03T19:59:05.344Z,102033.72
2022-12-03T20:01:34.636Z,102028.59
2022-12-03T20:04:03.118Z,102037.19
2022-12-03T20:06:33.639Z,102034.00
2022-12-03T20:09:04.955Z,102027.22
2022-12-03T20:11:32.837Z,102023.50
2022-12-03T20:14:02.378Z,102028.34
2022-12-03T20:16:30.074Z,102022.69
2022-12-03T20:18:59.627Z,102023.78
2022-12-03T20:21:28.375Z,102020.25
2022-12-03T20:23:54.808Z,102027.25
2022-12-03T20:26:21.802Z,102023.75
2022-12-03T20:28:48.650Z,102031.00
2022-12-03T20:31:18.257Z,102023.75
2022-12-03T20:33:50.212Z,102023.75
2022-12-03T20:36:18.483Z,102015.19
2022-12-03T20:38:45.136Z,102010.34
2022-12-03T20:41:14.409Z,102013.03
2022-12-03T20:43:41.431Z,102009.28
2022-12-03T20:46:12.271Z,102010.09
2022-12-03T20:48:39.377Z,102002.59
2022-12-03T20:51:07.592Z,102013.56
2022-12-03T20:53:35.172Z,102000.72
2022-12-03T20:56:02.197Z,102001.50
2022-12-03T20:58:30.057Z,101999.88
2022-12-03T21:00:56.780Z,102002.06
2022-12-03T21:03:23.213Z,102008.75
2022-12-03T21:05:49.749Z,102008.19
2022-12-03T21:08:20.926Z,101999.88
2022-12-03T21:10:55.239Z,101998.56
2022-12-03T21:13:21.919Z,102001.28
2022-12-03T21:15:48.560Z,102001.53
2022-12-03T21:18:17.570Z,101994.53
2022-12-03T21:20:46.441Z,101991.34
2022-12-03T21:23:14.052Z,101992.16
2022-12-03T21:25:40.689Z,101998.56
2022-12-03T21:28:09.397Z,101997.50
2022-12-03T21:30:39.945Z,101999.66
2022-12-03T21:33:06.972Z,101991.66
2022-12-03T21:35:37.416Z,101997.56
2022-12-03T21:38:04.011Z,101992.16
2022-12-03T21:40:30.530Z,101993.78
2022-12-03T21:42:56.990Z,101993.22
2022-12-03T21:45:25.005Z,101983.56
2022-12-03T21:47:51.620Z,101982.22
2022-12-03T21:50:18.191Z,101977.38
2022-12-03T21:52:44.656Z,101986.78
2022-12-03T21:55:11.207Z,101985.66
2022-12-03T21:57:37.892Z,101993.16
2022-12-03T22:00:07.755Z,102000.66
2022-12-03T22:02:34.771Z,101994.22
2022-12-03T22:05:02.348Z,101989.94
2022-12-03T22:07:28.869Z,101988.63
2022-12-03T22:09:55.620Z,101981.41
2022-12-03T22:12:22.241Z,101993.16
2022-12-03T22:14:48.687Z,101977.09
2022-12-03T22:17:15.086Z,101980.31
2022-12-03T22:19:42.122Z,101973.56
2022-12-03T22:22:08.641Z,101984.59
2022-12-03T22:24:35.122Z,101984.59
2022-12-03T22:27:02.047Z,101981.63
2022-12-03T22:29:28.477Z,101975.97
2022-12-03T22:31:54.925Z,101979.22
2022-12-03T22:34:21.388Z,101974.16
2022-12-03T22:36:47.981Z,101985.19
2022-12-03T22:39:14.417Z,101981.13
2022-12-03T22:41:40.921Z,101969.34
2022-12-03T22:44:07.385Z,101971.22
2022-12-03T22:46:33.905Z,101972.56
2022-12-03T22:49:06.460Z,101972.50
2022-12-03T22:51:34.209Z,101962.38
2022-12-03T22:54:01.956Z,101964.75
2022-12-03T22:56:29.626Z,101962.09
2022-12-03T22:58:56.158Z,101955.69
2022-12-03T23:01:31.350Z,101959.69
2022-12-03T23:03:58.581Z,101962.63
2022-12-03T23:06:25.343Z,101958.34
2022-12-03T23:08:52.250Z,101957.25
2022-12-03T23:11:19.401Z,101958.88
2022-12-03T23:13:46.446Z,101961.59
2022-12-03T23:16:19.601Z,101961.56
2022-12-03T23:18:46.485Z,101959.72
2022-12-03T23:21:17.781Z,101963.72
2022-12-03T23:23:44.274Z,101962.88
2022-12-03T23:26:13.158Z,101954.84
2022-12-03T23:28:41.247Z,101955.41
2022-12-03T23:31:17.717Z,101961.31
2022-12-03T23:33:45.025Z,101954.31
2022-12-03T23:36:11.831Z,101955.94
2022-12-03T23:38:39.272Z,101958.63
2022-12-03T23:41:08.440Z,101954.88
2022-12-03T23:43:34.948Z,101961.03
2022-12-03T23:46:07.198Z,101963.19
2022-12-03T23:48:33.772Z,101962.38
2022-12-03T23:51:05.786Z,101956.72
2022-12-03T23:53:32.474Z,101952.19
2022-12-03T23:55:58.919Z,101956.72
2022-12-03T23:58:25.349Z,101957.81
